Miramar Marine Corps Air Station
KNKX : now visible

Airfield :











YOU CAN JOIN US ON...

 
LOGIN :

Register | Disclaimer

   EN    FR    IT 

 









Legend :    VFR   Marginal VFR   IFR   Intensive IFR   Very Intensive IFR
Visi :
Ceiling :
>= 8 km
>= 3000ft
5 to 8 km
1000 to 3000 ft
1500m to 5 km
500 to 1000 ft
800 to 1500m
200 to 500 ft
< 800m
< 200 ft
Symbols :   Thunderstorms  Fog  Heavy snow  Heavy precipitations  Wind > 20 kt






- Airport Elevation : 477 ft


KNKX - Miramar Marine Corps Air Station

CURRENT METAR :
  • 270455Z 06004KT 7SM CLR 09/08 A3006 RMK AO2 SLP177 T00890083 $

EXPIRED METARs :
  • 270355Z 00000KT 10SM CLR 10/08 A3005 RMK AO2 SLP174 T01000078 $
  • 270255Z 05003KT 10SM CLR 11/09 A3004 RMK AO2 SLP169 T01060089 53015 $

TAF TAF KNKX
Valid from the 26 at 15:00 until the 27 at 15:00 UTC


2615/2715 VRB05KT 3200 BR SKC QNH3001INS
BECMG 2615/2617 VRB05KT 9999 SKC QNH2996INS
TEMPO 2620/2702 29008KT T19/2621Z T06/2714Z LAST TAF NO AMD AFT 2615/ NEXT 2715
KZLA FIR / North America



MET'MAP, your aeronautical weather chart ! - Copyright ORBIFLY December 2007 - Disclaimer

ORBIFLY MET'MAP TEAM :

Programming & Development : Alexandra Zaïnal
Concept & original design : Baudouin d'Aumeries
Assistance for programming : Marc-Olivier Méhu
Technical & hardware support : Manuel Goepfert

Contact : metmap@orbifly.com




SOURCES & CREDITS :

   NOAA       Earth
Advisory